createdAt,value
2022-11-10T00:02:15.149Z,100.00
2022-11-10T00:04:43.048Z,100.00
2022-11-10T00:07:11.239Z,100.00
2022-11-10T00:09:40.643Z,100.00
2022-11-10T00:12:08.535Z,100.00
2022-11-10T00:14:50.492Z,100.00
2022-11-10T00:17:18.476Z,100.00
2022-11-10T00:19:46.384Z,100.00
2022-11-10T00:22:14.369Z,100.00
2022-11-10T00:24:44.870Z,100.00
2022-11-10T00:27:13.878Z,100.00
2022-11-10T00:29:41.978Z,100.00
2022-11-10T00:32:10.331Z,100.00
2022-11-10T00:34:38.236Z,100.00
2022-11-10T00:37:06.209Z,100.00
2022-11-10T00:39:34.173Z,100.00
2022-11-10T00:42:03.571Z,100.00
2022-11-10T00:44:31.494Z,100.00
2022-11-10T00:46:59.441Z,100.00
2022-11-10T00:49:27.654Z,100.00
2022-11-10T00:51:55.639Z,100.00
2022-11-10T00:54:23.613Z,100.00
2022-11-10T00:56:51.431Z,100.00
2022-11-10T00:59:20.733Z,100.00
2022-11-10T01:01:48.644Z,100.00
2022-11-10T01:04:16.607Z,100.00
2022-11-10T01:06:44.651Z,100.00
2022-11-10T01:09:12.543Z,100.00
2022-11-10T01:11:40.481Z,100.00
2022-11-10T01:14:09.043Z,100.00
2022-11-10T01:16:38.303Z,100.00
2022-11-10T01:19:06.324Z,100.00
2022-11-10T01:21:34.250Z,100.00
2022-11-10T01:24:02.276Z,100.00
2022-11-10T01:26:30.371Z,100.00
2022-11-10T01:28:58.731Z,100.00
2022-11-10T01:31:26.615Z,100.00
2022-11-10T01:33:55.977Z,100.00
2022-11-10T01:36:24.060Z,100.00
2022-11-10T01:38:51.939Z,100.00
2022-11-10T01:41:19.913Z,100.00
2022-11-10T01:43:47.824Z,100.00
2022-11-10T01:46:16.607Z,100.00
2022-11-10T01:48:47.532Z,100.00
2022-11-10T01:51:22.497Z,100.00
2022-11-10T01:53:54.984Z,100.00
2022-11-10T01:56:24.918Z,100.00
2022-11-10T01:58:58.080Z,100.00
2022-11-10T02:01:26.513Z,100.00
2022-11-10T02:03:57.448Z,100.00
2022-11-10T02:06:36.940Z,100.00
2022-11-10T02:09:05.159Z,100.00
2022-11-10T02:11:33.951Z,100.00
2022-11-10T02:14:02.747Z,100.00
2022-11-10T02:16:31.381Z,100.00
2022-11-10T02:18:59.263Z,100.00
2022-11-10T02:21:28.606Z,100.00
2022-11-10T02:23:56.636Z,100.00
2022-11-10T02:26:26.907Z,100.00
2022-11-10T02:28:54.884Z,100.00
2022-11-10T02:31:24.243Z,100.00
2022-11-10T02:33:52.085Z,100.00
2022-11-10T02:36:20.104Z,100.00
2022-11-10T02:38:49.437Z,100.00
2022-11-10T02:41:17.306Z,100.00
2022-11-10T02:43:45.363Z,100.00
2022-11-10T02:46:13.542Z,100.00
2022-11-10T02:48:41.409Z,100.00
2022-11-10T02:51:09.866Z,100.00
2022-11-10T02:53:37.826Z,100.00
2022-11-10T02:56:07.656Z,100.00
2022-11-10T02:58:35.664Z,100.00
2022-11-10T03:01:06.902Z,100.00
2022-11-10T03:03:35.461Z,100.00
2022-11-10T03:06:03.732Z,100.00
2022-11-10T03:08:31.715Z,100.00
2022-11-10T03:10:59.597Z,100.00
2022-11-10T03:13:45.309Z,100.00
2022-11-10T03:16:19.283Z,100.00
2022-11-10T03:18:47.931Z,100.00
2022-11-10T03:21:16.239Z,100.00
2022-11-10T03:23:44.098Z,100.00
2022-11-10T03:26:12.092Z,100.00
2022-11-10T03:28:41.387Z,100.00
2022-11-10T03:31:09.415Z,100.00
2022-11-10T03:33:37.491Z,100.00
2022-11-10T03:36:05.808Z,100.00
2022-11-10T03:38:33.703Z,100.00
2022-11-10T03:41:18.938Z,100.00
2022-11-10T03:43:49.317Z,100.00
2022-11-10T03:46:18.067Z,100.00
2022-11-10T03:48:51.833Z,100.00
2022-11-10T03:51:21.190Z,100.00
2022-11-10T03:53:49.058Z,100.00
2022-11-10T03:56:16.984Z,100.00
2022-11-10T03:58:45.227Z,100.00
2022-11-10T04:01:14.633Z,100.00
2022-11-10T04:03:44.361Z,100.00
2022-11-10T04:06:31.849Z,100.00
2022-11-10T04:09:02.628Z,100.00
2022-11-10T04:11:49.530Z,100.00
2022-11-10T04:14:34.954Z,100.00
2022-11-10T04:17:05.064Z,100.00
2022-11-10T04:19:33.065Z,100.00
2022-11-10T04:22:01.013Z,100.00
2022-11-10T04:24:29.089Z,100.00
2022-11-10T04:26:56.969Z,100.00
2022-11-10T04:29:24.837Z,100.00
2022-11-10T04:31:53.257Z,100.00
2022-11-10T04:34:22.508Z,100.00
2022-11-10T04:36:50.443Z,100.00
2022-11-10T04:39:18.594Z,100.00
2022-11-10T04:41:47.344Z,100.00
2022-11-10T04:44:15.269Z,100.00
2022-11-10T04:46:44.232Z,100.00
2022-11-10T04:49:12.612Z,100.00
2022-11-10T04:51:41.978Z,100.00
2022-11-10T04:54:11.492Z,100.00
2022-11-10T04:56:40.276Z,100.00
2022-11-10T04:59:08.170Z,100.00
2022-11-10T05:01:36.324Z,100.00
2022-11-10T05:04:05.636Z,100.00
2022-11-10T05:06:33.568Z,100.00
2022-11-10T05:09:03.555Z,100.00
2022-11-10T05:11:31.418Z,100.00
2022-11-10T05:13:59.322Z,100.00
2022-11-10T05:16:27.250Z,100.00
2022-11-10T05:18:56.083Z,100.00
2022-11-10T05:21:24.017Z,100.00
2022-11-10T05:23:52.028Z,100.00
2022-11-10T05:26:21.327Z,100.00
2022-11-10T05:28:49.216Z,100.00
2022-11-10T05:31:17.265Z,100.00
2022-11-10T05:33:45.192Z,100.00
2022-11-10T05:36:13.055Z,100.00
2022-11-10T05:38:43.754Z,100.00
2022-11-10T05:41:12.142Z,100.00
2022-11-10T05:43:41.427Z,100.00
2022-11-10T05:46:09.492Z,100.00
2022-11-10T05:48:37.380Z,100.00
2022-11-10T05:51:05.430Z,100.00
2022-11-10T05:53:33.701Z,100.00
2022-11-10T05:56:01.582Z,100.00
2022-11-10T05:58:29.485Z,100.00
2022-11-10T06:00:58.890Z,100.00
2022-11-10T06:03:27.070Z,100.00
2022-11-10T06:05:55.206Z,100.00
2022-11-10T06:08:23.446Z,100.00
2022-11-10T06:10:51.331Z,100.00
2022-11-10T06:13:19.323Z,100.00
2022-11-10T06:15:50.325Z,100.00
2022-11-10T06:18:19.740Z,100.00
2022-11-10T06:20:48.484Z,100.00
2022-11-10T06:23:16.601Z,100.00
2022-11-10T06:25:44.734Z,100.00
2022-11-10T06:28:12.999Z,100.00
2022-11-10T06:30:41.013Z,100.00
2022-11-10T06:33:09.839Z,100.00
2022-11-10T06:35:39.473Z,100.00
2022-11-10T06:38:09.031Z,100.00
2022-11-10T06:40:37.054Z,100.00
2022-11-10T06:43:05.923Z,100.00
2022-11-10T06:45:33.788Z,100.00
2022-11-10T06:48:02.994Z,100.00
2022-11-10T06:50:31.167Z,100.00
2022-11-10T06:53:01.698Z,100.00
2022-11-10T06:55:30.356Z,100.00
2022-11-10T06:57:58.767Z,100.00
2022-11-10T07:00:27.668Z,100.00
2022-11-10T07:03:02.927Z,100.00
2022-11-10T07:05:31.364Z,100.00
2022-11-10T07:08:04.733Z,100.00
2022-11-10T07:10:33.515Z,100.00
2022-11-10T07:13:02.770Z,100.00
2022-11-10T07:15:31.672Z,100.00
2022-11-10T07:17:59.620Z,100.00
2022-11-10T07:20:28.492Z,100.00
2022-11-10T07:23:00.627Z,100.00
2022-11-10T07:25:32.804Z,100.00
2022-11-10T07:28:02.644Z,100.00
2022-11-10T07:30:32.294Z,100.00
2022-11-10T07:33:01.576Z,100.00
2022-11-10T07:35:30.841Z,100.00
2022-11-10T07:38:02.121Z,100.00
2022-11-10T07:40:32.102Z,100.00
2022-11-10T07:43:00.249Z,100.00
2022-11-10T07:45:28.867Z,100.00
2022-11-10T07:48:00.307Z,100.00
2022-11-10T07:50:28.665Z,100.00
2022-11-10T07:53:04.337Z,100.00
2022-11-10T07:55:33.851Z,100.00
2022-11-10T07:58:02.225Z,100.00
2022-11-10T08:00:30.872Z,100.00
2022-11-10T08:03:03.771Z,100.00
2022-11-10T08:05:31.932Z,100.00
2022-11-10T08:08:00.500Z,100.00
2022-11-10T08:10:28.521Z,100.00
2022-11-10T08:12:59.255Z,100.00
2022-11-10T08:15:28.846Z,100.00
2022-11-10T08:18:00.063Z,100.00
2022-11-10T08:20:28.206Z,100.00
2022-11-10T08:23:00.202Z,100.00
2022-11-10T08:25:34.160Z,100.00
2022-11-10T08:28:07.364Z,100.00
2022-11-10T08:30:36.422Z,100.00
2022-11-10T08:33:06.126Z,100.00
2022-11-10T08:35:37.789Z,100.00
2022-11-10T08:38:10.204Z,100.00
2022-11-10T08:40:38.449Z,100.00
2022-11-10T08:43:08.724Z,100.00
2022-11-10T08:45:37.376Z,100.00
2022-11-10T08:48:07.445Z,100.00
2022-11-10T08:50:35.600Z,100.00
2022-11-10T08:53:05.058Z,100.00
2022-11-10T08:55:33.329Z,100.00
2022-11-10T08:58:02.804Z,100.00
2022-11-10T09:00:33.583Z,100.00
2022-11-10T09:03:06.520Z,100.00
2022-11-10T09:05:34.800Z,100.00
2022-11-10T09:08:04.014Z,100.00
2022-11-10T09:10:32.193Z,100.00
2022-11-10T09:13:01.550Z,100.00
2022-11-10T09:15:31.573Z,100.00
2022-11-10T09:18:00.391Z,100.00
2022-11-10T09:20:29.585Z,100.00
2022-11-10T09:22:57.754Z,100.00
2022-11-10T09:25:25.768Z,100.00
2022-11-10T09:27:53.779Z,100.00
2022-11-10T09:30:21.800Z,100.00
2022-11-10T09:32:56.168Z,100.00
2022-11-10T09:35:24.565Z,100.00
2022-11-10T09:37:52.621Z,100.00
2022-11-10T09:40:25.111Z,100.00
2022-11-10T09:42:56.931Z,100.00
2022-11-10T09:45:28.021Z,100.00
2022-11-10T09:48:01.582Z,99.22
2022-11-10T09:50:37.502Z,100.00
2022-11-10T09:53:07.292Z,100.00
2022-11-10T09:55:40.103Z,99.72
2022-11-10T09:58:12.625Z,100.00
2022-11-10T10:00:43.743Z,100.00
2022-11-10T10:03:22.747Z,99.59
2022-11-10T10:06:02.832Z,97.58
2022-11-10T10:08:45.607Z,96.24
2022-11-10T10:11:27.876Z,95.79
2022-11-10T10:14:24.787Z,94.53
2022-11-10T10:17:01.031Z,93.18
2022-11-10T10:19:40.734Z,93.54
2022-11-10T10:22:28.512Z,93.21
2022-11-10T10:25:02.834Z,92.35
2022-11-10T10:27:33.159Z,91.36
2022-11-10T10:30:01.252Z,91.39
2022-11-10T10:32:29.804Z,91.52
2022-11-10T10:34:59.172Z,90.91
2022-11-10T10:37:40.733Z,90.77
2022-11-10T10:40:14.837Z,90.54
2022-11-10T10:42:42.905Z,90.57
2022-11-10T10:45:19.125Z,91.30
2022-11-10T10:47:49.483Z,91.62
2022-11-10T10:50:35.150Z,91.77
2022-11-10T10:53:17.096Z,91.64
2022-11-10T10:55:50.381Z,91.49
2022-11-10T10:58:27.376Z,91.57
2022-11-10T11:01:01.899Z,92.03
2022-11-10T11:03:31.871Z,92.07
2022-11-10T11:06:08.084Z,91.99
2022-11-10T11:08:36.390Z,92.54
2022-11-10T11:11:12.878Z,92.59
2022-11-10T11:13:40.981Z,92.84
2022-11-10T11:16:12.447Z,92.36
2022-11-10T11:18:41.522Z,92.24
2022-11-10T11:21:18.714Z,92.40
2022-11-10T11:24:07.202Z,91.73
2022-11-10T11:26:49.957Z,91.72
2022-11-10T11:29:33.281Z,91.26
2022-11-10T11:32:15.530Z,90.99
2022-11-10T11:34:54.837Z,90.89
2022-11-10T11:37:32.893Z,90.53
2022-11-10T11:40:14.872Z,90.42
2022-11-10T11:42:54.739Z,90.56
2022-11-10T11:45:32.460Z,89.74
2022-11-10T11:48:12.918Z,88.64
2022-11-10T11:50:45.160Z,89.29
2022-11-10T11:53:28.832Z,89.37
2022-11-10T11:56:10.161Z,89.19
2022-11-10T11:58:45.459Z,89.25
2022-11-10T12:01:27.460Z,88.67
2022-11-10T12:04:33.810Z,88.68
2022-11-10T12:07:14.398Z,89.39
2022-11-10T12:09:48.165Z,89.29
2022-11-10T12:12:31.512Z,89.70
2022-11-10T12:15:09.426Z,89.36
2022-11-10T12:17:47.439Z,88.98
2022-11-10T12:20:27.302Z,88.87
2022-11-10T12:23:03.876Z,88.81
2022-11-10T12:25:39.557Z,88.19
2022-11-10T12:28:16.741Z,88.41
2022-11-10T12:30:45.846Z,88.20
2022-11-10T12:33:22.019Z,88.30
2022-11-10T12:35:52.643Z,88.40
2022-11-10T12:38:26.530Z,88.80
2022-11-10T12:41:02.896Z,88.41
2022-11-10T12:43:36.579Z,88.92
2022-11-10T12:46:08.890Z,88.94
2022-11-10T12:48:46.276Z,89.19
2022-11-10T12:51:21.772Z,88.91
2022-11-10T12:53:50.452Z,88.61
2022-11-10T12:56:25.462Z,88.59
2022-11-10T12:59:16.404Z,87.84
2022-11-10T13:01:46.224Z,87.85
2022-11-10T13:04:15.757Z,87.61
2022-11-10T13:06:49.977Z,87.94
2022-11-10T13:09:25.690Z,87.74
2022-11-10T13:12:21.295Z,87.64
2022-11-10T13:14:49.990Z,87.63
2022-11-10T13:17:55.161Z,87.47
2022-11-10T13:20:48.224Z,87.53
2022-11-10T13:23:27.323Z,87.56
2022-11-10T13:25:58.363Z,87.84
2022-11-10T13:29:03.849Z,87.52
2022-11-10T13:31:52.117Z,87.81
2022-11-10T13:34:32.488Z,88.06
2022-11-10T13:37:01.177Z,88.52
2022-11-10T13:39:31.521Z,88.63
2022-11-10T13:42:17.881Z,88.95
2022-11-10T13:44:47.965Z,89.07
2022-11-10T13:47:37.472Z,88.76
2022-11-10T13:50:22.232Z,88.81
2022-11-10T13:53:00.954Z,88.84
2022-11-10T13:55:41.256Z,88.31
2022-11-10T13:58:18.466Z,88.60
2022-11-10T14:00:52.713Z,88.96
2022-11-10T14:03:55.342Z,88.76
2022-11-10T14:06:26.600Z,88.88
2022-11-10T14:08:57.853Z,89.13
2022-11-10T14:11:35.296Z,89.38
2022-11-10T14:14:13.052Z,89.68
2022-11-10T14:16:44.188Z,89.75
2022-11-10T14:19:26.901Z,90.11
2022-11-10T14:21:58.562Z,90.57
2022-11-10T14:24:30.123Z,90.67
2022-11-10T14:27:00.935Z,90.74
2022-11-10T14:29:32.424Z,91.04
2022-11-10T14:32:04.357Z,90.97
2022-11-10T14:34:42.391Z,91.17
2022-11-10T14:37:16.739Z,91.57
2022-11-10T14:39:45.601Z,91.99
2022-11-10T14:42:19.985Z,92.00
2022-11-10T14:44:48.929Z,92.03
2022-11-10T14:47:26.085Z,92.26
2022-11-10T14:50:08.325Z,92.59
2022-11-10T14:52:40.574Z,92.68
2022-11-10T14:55:14.145Z,92.88
2022-11-10T14:57:42.311Z,92.97
2022-11-10T15:00:16.342Z,93.32
2022-11-10T15:02:46.281Z,93.53
2022-11-10T15:05:15.802Z,93.64
2022-11-10T15:07:46.323Z,93.83
2022-11-10T15:10:22.596Z,93.79
2022-11-10T15:13:05.024Z,93.72
2022-11-10T15:15:33.035Z,93.35
2022-11-10T15:18:02.383Z,93.19
2022-11-10T15:20:36.131Z,93.30
2022-11-10T15:23:06.114Z,93.26
2022-11-10T15:25:38.968Z,93.15
2022-11-10T15:28:25.815Z,93.15
2022-11-10T15:30:56.683Z,93.06
2022-11-10T15:33:32.231Z,93.10
2022-11-10T15:36:15.899Z,93.16
2022-11-10T15:38:43.839Z,93.33
2022-11-10T15:41:14.789Z,93.25
2022-11-10T15:43:43.311Z,93.22
2022-11-10T15:46:17.806Z,93.27
2022-11-10T15:48:51.076Z,93.63
2022-11-10T15:51:25.977Z,93.89
2022-11-10T15:53:55.780Z,93.85
2022-11-10T15:56:25.597Z,93.94
2022-11-10T15:58:59.257Z,94.19
2022-11-10T16:01:31.546Z,94.13
2022-11-10T16:04:00.920Z,94.40
2022-11-10T16:06:30.661Z,94.64
2022-11-10T16:08:58.850Z,94.48
2022-11-10T16:11:27.121Z,94.60
2022-11-10T16:13:56.373Z,94.59
2022-11-10T16:16:24.842Z,94.87
2022-11-10T16:18:53.143Z,95.08
2022-11-10T16:21:24.025Z,95.02
2022-11-10T16:23:53.667Z,95.38
2022-11-10T16:26:24.969Z,95.53
2022-11-10T16:28:53.487Z,95.64
2022-11-10T16:31:23.303Z,96.02
2022-11-10T16:33:51.446Z,96.09
2022-11-10T16:36:26.232Z,95.71
2022-11-10T16:38:55.367Z,96.30
2022-11-10T16:41:23.634Z,96.49
2022-11-10T16:43:51.575Z,96.78
2022-11-10T16:46:22.873Z,97.06
2022-11-10T16:48:53.979Z,97.12
2022-11-10T16:51:29.928Z,97.45
2022-11-10T16:53:59.669Z,97.77
2022-11-10T16:56:27.601Z,97.87
2022-11-10T16:58:55.635Z,98.17
2022-11-10T17:01:27.736Z,98.26
2022-11-10T17:03:58.264Z,98.47
2022-11-10T17:06:29.155Z,98.65
2022-11-10T17:09:01.673Z,99.02
2022-11-10T17:11:29.682Z,99.16
2022-11-10T17:13:57.623Z,99.29
2022-11-10T17:16:28.909Z,99.12
2022-11-10T17:18:58.921Z,99.36
2022-11-10T17:21:32.892Z,99.29
2022-11-10T17:24:01.935Z,99.30
2022-11-10T17:26:30.768Z,99.54
2022-11-10T17:28:58.841Z,99.71
2022-11-10T17:31:27.024Z,99.82
2022-11-10T17:33:55.316Z,99.83
2022-11-10T17:36:24.535Z,99.73
2022-11-10T17:38:53.978Z,99.85
2022-11-10T17:41:22.128Z,99.85
2022-11-10T17:43:50.061Z,100.00
2022-11-10T17:46:18.412Z,100.00
2022-11-10T17:48:47.775Z,100.00
2022-11-10T17:51:19.296Z,100.00
2022-11-10T17:53:47.377Z,100.00
2022-11-10T17:56:16.590Z,100.00
2022-11-10T17:58:44.636Z,100.00
2022-11-10T18:01:18.897Z,100.00
2022-11-10T18:03:47.655Z,100.00
2022-11-10T18:06:16.152Z,100.00
2022-11-10T18:08:44.601Z,100.00
2022-11-10T18:11:15.473Z,100.00
2022-11-10T18:13:45.798Z,100.00
2022-11-10T18:16:15.070Z,100.00
2022-11-10T18:18:43.133Z,100.00
2022-11-10T18:21:11.427Z,100.00
2022-11-10T18:23:39.369Z,100.00
2022-11-10T18:26:09.056Z,100.00
2022-11-10T18:28:37.186Z,100.00
2022-11-10T18:31:10.816Z,100.00
2022-11-10T18:33:38.801Z,100.00
2022-11-10T18:36:07.536Z,100.00
2022-11-10T18:38:36.075Z,100.00
2022-11-10T18:41:26.676Z,100.00
2022-11-10T18:43:54.683Z,100.00
2022-11-10T18:46:24.040Z,100.00
2022-11-10T18:48:51.876Z,100.00
2022-11-10T18:51:20.076Z,100.00
2022-11-10T18:53:48.169Z,100.00
2022-11-10T18:56:16.054Z,100.00
2022-11-10T18:58:44.047Z,100.00
2022-11-10T19:01:12.851Z,100.00
2022-11-10T19:03:42.902Z,100.00
2022-11-10T19:06:11.834Z,100.00
2022-11-10T19:08:40.219Z,100.00
2022-11-10T19:11:09.827Z,100.00
2022-11-10T19:13:38.368Z,100.00
2022-11-10T19:16:07.744Z,100.00
2022-11-10T19:18:35.762Z,100.00
2022-11-10T19:21:07.545Z,100.00
2022-11-10T19:23:35.975Z,100.00
2022-11-10T19:26:05.715Z,100.00
2022-11-10T19:28:33.771Z,100.00
2022-11-10T19:31:02.329Z,100.00
2022-11-10T19:33:31.674Z,100.00
2022-11-10T19:36:03.370Z,100.00
2022-11-10T19:38:33.153Z,100.00
2022-11-10T19:41:05.812Z,99.92
2022-11-10T19:43:33.733Z,99.93
2022-11-10T19:46:05.349Z,99.81
2022-11-10T19:48:33.798Z,99.89
2022-11-10T19:51:03.199Z,99.65
2022-11-10T19:53:33.372Z,99.19
2022-11-10T19:56:02.627Z,98.98
2022-11-10T19:58:30.828Z,98.86
2022-11-10T20:01:00.194Z,98.58
2022-11-10T20:03:29.862Z,98.73
2022-11-10T20:06:02.078Z,98.32
2022-11-10T20:08:30.725Z,98.49
2022-11-10T20:11:05.607Z,98.47
2022-11-10T20:13:33.915Z,98.42
2022-11-10T20:16:04.979Z,98.14
2022-11-10T20:18:34.836Z,97.71
2022-11-10T20:21:06.345Z,97.67
2022-11-10T20:23:34.808Z,97.68
2022-11-10T20:26:05.980Z,97.56
2022-11-10T20:28:35.916Z,97.95
2022-11-10T20:31:05.246Z,98.73
2022-11-10T20:33:34.380Z,99.52
2022-11-10T20:36:07.712Z,100.00
2022-11-10T20:38:37.577Z,100.00
2022-11-10T20:41:09.487Z,100.00
2022-11-10T20:43:39.216Z,100.00
2022-11-10T20:46:09.464Z,100.00
2022-11-10T20:48:37.515Z,100.00
2022-11-10T20:51:10.748Z,100.00
2022-11-10T20:53:39.207Z,100.00
2022-11-10T20:56:09.217Z,100.00
2022-11-10T20:58:37.330Z,100.00
2022-11-10T21:01:07.669Z,100.00
2022-11-10T21:03:36.306Z,100.00
2022-11-10T21:06:04.943Z,100.00
2022-11-10T21:08:33.073Z,100.00
2022-11-10T21:11:03.292Z,100.00
2022-11-10T21:13:32.685Z,100.00
2022-11-10T21:16:03.152Z,100.00
2022-11-10T21:18:33.409Z,100.00
2022-11-10T21:21:01.368Z,100.00
2022-11-10T21:23:29.499Z,100.00
2022-11-10T21:25:59.088Z,100.00
2022-11-10T21:28:27.326Z,100.00
2022-11-10T21:31:05.300Z,100.00
2022-11-10T21:33:33.206Z,100.00
2022-11-10T21:36:07.061Z,100.00
2022-11-10T21:38:35.885Z,100.00
2022-11-10T21:41:04.026Z,100.00
2022-11-10T21:43:32.285Z,100.00
2022-11-10T21:46:02.305Z,100.00
2022-11-10T21:48:31.767Z,100.00
2022-11-10T21:51:01.793Z,100.00
2022-11-10T21:53:29.788Z,100.00
2022-11-10T21:56:01.460Z,100.00
2022-11-10T21:58:29.411Z,100.00
2022-11-10T22:01:01.809Z,100.00
2022-11-10T22:03:31.629Z,100.00
2022-11-10T22:06:04.062Z,100.00
2022-11-10T22:08:32.139Z,100.00
2022-11-10T22:11:29.070Z,100.00
2022-11-10T22:14:14.348Z,100.00
2022-11-10T22:17:03.329Z,100.00
2022-11-10T22:19:34.490Z,100.00
2022-11-10T22:22:03.867Z,100.00
2022-11-10T22:24:33.838Z,100.00
2022-11-10T22:27:03.028Z,100.00
2022-11-10T22:29:32.635Z,100.00
2022-11-10T22:32:01.315Z,100.00
2022-11-10T22:34:29.421Z,100.00
2022-11-10T22:36:59.696Z,100.00
2022-11-10T22:39:48.542Z,100.00
2022-11-10T22:42:33.769Z,100.00
2022-11-10T22:45:01.880Z,100.00
2022-11-10T22:47:49.971Z,100.00
2022-11-10T22:50:18.148Z,100.00
2022-11-10T22:52:47.341Z,100.00
2022-11-10T22:55:15.355Z,100.00
2022-11-10T22:57:43.471Z,100.00
2022-11-10T23:00:12.636Z,100.00
2022-11-10T23:02:40.437Z,100.00
2022-11-10T23:05:08.904Z,100.00
2022-11-10T23:07:36.754Z,100.00
2022-11-10T23:10:06.843Z,100.00
2022-11-10T23:12:35.189Z,100.00
2022-11-10T23:15:03.168Z,100.00
2022-11-10T23:17:31.141Z,100.00
2022-11-10T23:19:59.329Z,100.00
2022-11-10T23:22:27.188Z,100.00
2022-11-10T23:24:57.387Z,100.00
2022-11-10T23:27:27.115Z,100.00
2022-11-10T23:29:55.056Z,100.00
2022-11-10T23:32:22.899Z,100.00
2022-11-10T23:34:50.982Z,100.00
2022-11-10T23:37:21.009Z,100.00
2022-11-10T23:39:48.960Z,100.00
2022-11-10T23:42:17.023Z,100.00
2022-11-10T23:44:46.315Z,100.00
2022-11-10T23:47:14.180Z,100.00
2022-11-10T23:49:42.299Z,100.00
2022-11-10T23:52:10.180Z,100.00
2022-11-10T23:54:38.043Z,100.00
2022-11-10T23:57:06.144Z,100.00
2022-11-10T23:59:34.082Z,100.00
